sensor_id;sensor_type;location;lat;lon;timestamp;pressure;altitude;pressure_sealevel;temperature;humidity
75549;BME280;64133;56.002;37.208;2023-07-30T00:04:00;98156.50;;;13.77;85.65
75549;BME280;64133;56.002;37.208;2023-07-30T00:09:05;98157.32;;;13.77;85.80
75549;BME280;64133;56.002;37.208;2023-07-30T00:14:09;98155.02;;;13.74;85.88
75549;BME280;64133;56.002;37.208;2023-07-30T00:19:14;98157.84;;;13.73;86.02
75549;BME280;64133;56.002;37.208;2023-07-30T00:24:19;98159.48;;;13.74;85.99
75549;BME280;64133;56.002;37.208;2023-07-30T00:29:23;98155.89;;;13.67;86.01
75549;BME280;64133;56.002;37.208;2023-07-30T00:34:28;98158.92;;;13.60;86.12
75549;BME280;64133;56.002;37.208;2023-07-30T00:39:33;98158.66;;;13.50;85.98
75549;BME280;64133;56.002;37.208;2023-07-30T00:44:38;98159.61;;;13.53;86.23
75549;BME280;64133;56.002;37.208;2023-07-30T00:49:42;98157.65;;;13.51;85.96
75549;BME280;64133;56.002;37.208;2023-07-30T00:54:47;98157.67;;;13.47;85.68
75549;BME280;64133;56.002;37.208;2023-07-30T00:59:52;98153.70;;;13.47;85.77
75549;BME280;64133;56.002;37.208;2023-07-30T01:04:56;98149.89;;;13.50;85.68
75549;BME280;64133;56.002;37.208;2023-07-30T01:10:01;98155.52;;;13.47;85.46
75549;BME280;64133;56.002;37.208;2023-07-30T01:15:08;98151.43;;;13.36;85.69
75549;BME280;64133;56.002;37.208;2023-07-30T01:20:12;98143.17;;;13.35;85.75
75549;BME280;64133;56.002;37.208;2023-07-30T01:25:17;98145.02;;;13.30;85.75
75549;BME280;64133;56.002;37.208;2023-07-30T01:30:25;98146.03;;;13.21;86.01
75549;BME280;64133;56.002;37.208;2023-07-30T01:35:28;98145.86;;;13.19;86.10
75549;BME280;64133;56.002;37.208;2023-07-30T01:40:32;98141.26;;;13.17;86.15
75549;BME280;64133;56.002;37.208;2023-07-30T01:45:37;98132.30;;;13.22;86.27
75549;BME280;64133;56.002;37.208;2023-07-30T01:50:41;98134.95;;;13.22;86.15
75549;BME280;64133;56.002;37.208;2023-07-30T01:55:46;98137.77;;;13.28;86.04
75549;BME280;64133;56.002;37.208;2023-07-30T02:00:51;98132.94;;;13.32;86.03
75549;BME280;64133;56.002;37.208;2023-07-30T02:05:56;98144.34;;;13.37;85.84
75549;BME280;64133;56.002;37.208;2023-07-30T02:11:00;98144.16;;;13.38;85.76
75549;BME280;64133;56.002;37.208;2023-07-30T02:16:05;98135.09;;;13.37;85.75
75549;BME280;64133;56.002;37.208;2023-07-30T02:21:10;98141.35;;;13.36;85.62
75549;BME280;64133;56.002;37.208;2023-07-30T02:26:15;98155.28;;;13.29;85.74
75549;BME280;64133;56.002;37.208;2023-07-30T02:31:19;98153.81;;;13.23;86.00
75549;BME280;64133;56.002;37.208;2023-07-30T02:36:24;98166.55;;;13.19;86.04
75549;BME280;64133;56.002;37.208;2023-07-30T02:41:29;98152.34;;;13.16;86.25
75549;BME280;64133;56.002;37.208;2023-07-30T02:46:33;98158.28;;;13.14;86.38
75549;BME280;64133;56.002;37.208;2023-07-30T02:51:38;98152.67;;;13.13;86.46
75549;BME280;64133;56.002;37.208;2023-07-30T02:56:43;98161.42;;;13.14;86.47
75549;BME280;64133;56.002;37.208;2023-07-30T03:01:48;98161.29;;;13.11;86.55
75549;BME280;64133;56.002;37.208;2023-07-30T03:06:53;98167.38;;;13.16;86.88
75549;BME280;64133;56.002;37.208;2023-07-30T03:11:57;98175.79;;;13.23;86.51
75549;BME280;64133;56.002;37.208;2023-07-30T03:17:02;98178.77;;;13.28;86.37
75549;BME280;64133;56.002;37.208;2023-07-30T03:22:07;98185.18;;;13.34;86.16
75549;BME280;64133;56.002;37.208;2023-07-30T03:27:11;98190.10;;;13.45;86.29
75549;BME280;64133;56.002;37.208;2023-07-30T03:32:16;98188.16;;;13.62;85.98
75549;BME280;64133;56.002;37.208;2023-07-30T03:37:21;98195.39;;;13.76;85.69
75549;BME280;64133;56.002;37.208;2023-07-30T03:42:26;98198.94;;;13.88;85.45
75549;BME280;64133;56.002;37.208;2023-07-30T03:47:30;98195.00;;;14.11;85.04
75549;BME280;64133;56.002;37.208;2023-07-30T03:52:35;98207.34;;;14.41;84.60
75549;BME280;64133;56.002;37.208;2023-07-30T03:57:40;98202.84;;;14.65;83.92
75549;BME280;64133;56.002;37.208;2023-07-30T04:02:44;98205.03;;;14.95;83.36
75549;BME280;64133;56.002;37.208;2023-07-30T04:07:49;98216.59;;;15.13;82.64
75549;BME280;64133;56.002;37.208;2023-07-30T04:12:54;98210.07;;;15.45;82.15
75549;BME280;64133;56.002;37.208;2023-07-30T04:17:58;98220.36;;;15.33;81.60
75549;BME280;64133;56.002;37.208;2023-07-30T04:23:03;98223.78;;;15.38;81.81
75549;BME280;64133;56.002;37.208;2023-07-30T04:28:08;98220.28;;;15.52;81.50
75549;BME280;64133;56.002;37.208;2023-07-30T04:33:12;98213.56;;;15.86;80.77
75549;BME280;64133;56.002;37.208;2023-07-30T04:38:17;98224.91;;;16.16;80.09
75549;BME280;64133;56.002;37.208;2023-07-30T04:43:22;98217.51;;;16.11;79.61
75549;BME280;64133;56.002;37.208;2023-07-30T04:48:27;98223.45;;;16.34;79.44
75549;BME280;64133;56.002;37.208;2023-07-30T04:53:31;98237.86;;;16.15;79.23
75549;BME280;64133;56.002;37.208;2023-07-30T04:58:36;98237.23;;;16.13;79.45
75549;BME280;64133;56.002;37.208;2023-07-30T05:03:41;98233.63;;;16.31;79.28
75549;BME280;64133;56.002;37.208;2023-07-30T05:08:46;98235.73;;;16.25;79.19
75549;BME280;64133;56.002;37.208;2023-07-30T05:13:50;98238.30;;;16.82;78.18
75549;BME280;64133;56.002;37.208;2023-07-30T05:18:55;98234.05;;;17.05;77.14
75549;BME280;64133;56.002;37.208;2023-07-30T05:24:00;98245.84;;;17.07;76.50
75549;BME280;64133;56.002;37.208;2023-07-30T05:29:04;98248.53;;;17.14;76.74
75549;BME280;64133;56.002;37.208;2023-07-30T05:34:09;98252.42;;;17.46;75.73
75549;BME280;64133;56.002;37.208;2023-07-30T05:39:14;98250.52;;;17.74;74.38
75549;BME280;64133;56.002;37.208;2023-07-30T05:44:18;98252.79;;;17.60;73.36
75549;BME280;64133;56.002;37.208;2023-07-30T05:49:24;98251.77;;;18.09;72.39
75549;BME280;64133;56.002;37.208;2023-07-30T05:54:28;98254.13;;;18.15;71.34
75549;BME280;64133;56.002;37.208;2023-07-30T05:59:33;98253.45;;;18.37;70.45
75549;BME280;64133;56.002;37.208;2023-07-30T06:04:37;98256.44;;;18.44;70.08
75549;BME280;64133;56.002;37.208;2023-07-30T06:09:42;98239.52;;;18.54;69.44
75549;BME280;64133;56.002;37.208;2023-07-30T06:14:47;98254.02;;;18.96;69.27
75549;BME280;64133;56.002;37.208;2023-07-30T06:19:51;98243.56;;;18.74;68.46
75549;BME280;64133;56.002;37.208;2023-07-30T06:24:58;98243.46;;;18.98;68.34
75549;BME280;64133;56.002;37.208;2023-07-30T06:30:03;98236.36;;;19.50;67.61
75549;BME280;64133;56.002;37.208;2023-07-30T06:35:11;98241.11;;;18.86;68.05
75549;BME280;64133;56.002;37.208;2023-07-30T06:40:17;98229.94;;;19.58;67.12
75549;BME280;64133;56.002;37.208;2023-07-30T06:45:23;98231.73;;;19.48;66.23
75549;BME280;64133;56.002;37.208;2023-07-30T06:50:28;98233.73;;;19.73;66.22
75549;BME280;64133;56.002;37.208;2023-07-30T06:55:33;98218.25;;;20.04;65.39
75549;BME280;64133;56.002;37.208;2023-07-30T07:00:38;98221.91;;;20.09;64.56
75549;BME280;64133;56.002;37.208;2023-07-30T07:05:42;98220.62;;;20.19;63.81
75549;BME280;64133;56.002;37.208;2023-07-30T07:10:47;98227.36;;;20.12;63.75
75549;BME280;64133;56.002;37.208;2023-07-30T07:15:52;98229.44;;;20.26;63.27
75549;BME280;64133;56.002;37.208;2023-07-30T07:20:56;98224.47;;;20.29;62.77
75549;BME280;64133;56.002;37.208;2023-07-30T07:26:01;98238.43;;;20.00;62.42
75549;BME280;64133;56.002;37.208;2023-07-30T07:31:06;98229.51;;;20.44;61.69
75549;BME280;64133;56.002;37.208;2023-07-30T07:36:11;98224.61;;;20.57;60.47
75549;BME280;64133;56.002;37.208;2023-07-30T07:41:16;98231.10;;;20.36;61.26
75549;BME280;64133;56.002;37.208;2023-07-30T07:46:21;98229.44;;;20.82;60.01
75549;BME280;64133;56.002;37.208;2023-07-30T07:51:25;98229.63;;;21.15;59.01
75549;BME280;64133;56.002;37.208;2023-07-30T07:56:31;98228.96;;;21.11;58.55
75549;BME280;64133;56.002;37.208;2023-07-30T08:01:36;98215.89;;;21.30;57.14
75549;BME280;64133;56.002;37.208;2023-07-30T08:06:40;98223.94;;;21.67;56.99
75549;BME280;64133;56.002;37.208;2023-07-30T08:11:45;98213.00;;;21.50;56.32
75549;BME280;64133;56.002;37.208;2023-07-30T08:16:50;98205.47;;;21.68;56.16
75549;BME280;64133;56.002;37.208;2023-07-30T08:21:55;98219.85;;;21.73;55.62
75549;BME280;64133;56.002;37.208;2023-07-30T08:26:59;98210.14;;;21.91;55.16
75549;BME280;64133;56.002;37.208;2023-07-30T08:32:05;98205.11;;;22.03;54.75
75549;BME280;64133;56.002;37.208;2023-07-30T08:37:10;98223.38;;;21.55;54.93
75549;BME280;64133;56.002;37.208;2023-07-30T08:42:15;98223.13;;;22.56;52.94
75549;BME280;64133;56.002;37.208;2023-07-30T08:47:20;98227.56;;;22.30;53.17
75549;BME280;64133;56.002;37.208;2023-07-30T08:52:24;98229.62;;;21.06;55.00
75549;BME280;64133;56.002;37.208;2023-07-30T09:02:35;98227.12;;;21.84;53.13
75549;BME280;64133;56.002;37.208;2023-07-30T09:07:39;98222.16;;;22.39;51.25
75549;BME280;64133;56.002;37.208;2023-07-30T09:12:44;98229.07;;;22.58;51.46
75549;BME280;64133;56.002;37.208;2023-07-30T09:17:48;98231.80;;;22.28;51.83
75549;BME280;64133;56.002;37.208;2023-07-30T09:22:55;98232.22;;;21.65;52.91
75549;BME280;64133;56.002;37.208;2023-07-30T09:27:58;98234.20;;;22.48;50.75
75549;BME280;64133;56.002;37.208;2023-07-30T09:33:02;98234.09;;;22.13;50.85
75549;BME280;64133;56.002;37.208;2023-07-30T09:38:07;98219.70;;;21.50;52.10
75549;BME280;64133;56.002;37.208;2023-07-30T09:43:12;98237.31;;;22.13;51.61
75549;BME280;64133;56.002;37.208;2023-07-30T09:48:16;98240.16;;;22.11;50.86
75549;BME280;64133;56.002;37.208;2023-07-30T09:53:21;98242.29;;;23.54;48.35
75549;BME280;64133;56.002;37.208;2023-07-30T09:58:26;98244.57;;;21.66;51.62
75549;BME280;64133;56.002;37.208;2023-07-30T10:03:31;98245.02;;;21.45;51.72
75549;BME280;64133;56.002;37.208;2023-07-30T10:08:37;98248.14;;;22.48;49.97
75549;BME280;64133;56.002;37.208;2023-07-30T10:13:41;98247.00;;;23.12;48.44
75549;BME280;64133;56.002;37.208;2023-07-30T10:18:46;98245.31;;;23.31;47.96
75549;BME280;64133;56.002;37.208;2023-07-30T10:23:58;98242.69;;;23.11;48.28
75549;BME280;64133;56.002;37.208;2023-07-30T10:29:13;98249.63;;;23.44;46.88
75549;BME280;64133;56.002;37.208;2023-07-30T10:34:18;98256.34;;;23.44;46.19
75549;BME280;64133;56.002;37.208;2023-07-30T10:39:25;98246.88;;;23.65;45.98
75549;BME280;64133;56.002;37.208;2023-07-30T10:44:28;98255.98;;;23.52;46.37
75549;BME280;64133;56.002;37.208;2023-07-30T10:49:38;98246.13;;;24.10;45.90
75549;BME280;64133;56.002;37.208;2023-07-30T10:54:42;98244.95;;;23.40;46.61
75549;BME280;64133;56.002;37.208;2023-07-30T10:59:47;98252.75;;;22.50;48.05
75549;BME280;64133;56.002;37.208;2023-07-30T11:04:51;98239.48;;;22.67;47.73
75549;BME280;64133;56.002;37.208;2023-07-30T11:10:02;98241.88;;;23.22;46.60
75549;BME280;64133;56.002;37.208;2023-07-30T11:15:08;98245.39;;;23.60;45.62
75549;BME280;64133;56.002;37.208;2023-07-30T11:20:24;98237.33;;;23.60;45.33
75549;BME280;64133;56.002;37.208;2023-07-30T11:25:29;98239.08;;;24.21;44.77
75549;BME280;64133;56.002;37.208;2023-07-30T11:30:34;98256.06;;;23.31;45.84
75549;BME280;64133;56.002;37.208;2023-07-30T11:35:39;98250.16;;;23.81;44.73
75549;BME280;64133;56.002;37.208;2023-07-30T11:40:43;98244.10;;;24.46;43.55
75549;BME280;64133;56.002;37.208;2023-07-30T11:45:48;98249.63;;;22.86;45.85
75549;BME280;64133;56.002;37.208;2023-07-30T11:50:53;98251.25;;;23.45;45.24
75549;BME280;64133;56.002;37.208;2023-07-30T11:55:58;98249.66;;;22.88;45.73
75549;BME280;64133;56.002;37.208;2023-07-30T12:01:02;98253.59;;;22.62;46.24
75549;BME280;64133;56.002;37.208;2023-07-30T12:06:07;98259.20;;;23.28;44.97
75549;BME280;64133;56.002;37.208;2023-07-30T12:11:12;98255.22;;;23.66;43.93
75549;BME280;64133;56.002;37.208;2023-07-30T12:16:17;98245.30;;;24.24;43.32
75549;BME280;64133;56.002;37.208;2023-07-30T12:21:21;98247.75;;;24.11;43.00
75549;BME280;64133;56.002;37.208;2023-07-30T12:26:26;98259.08;;;24.39;42.85
75549;BME280;64133;56.002;37.208;2023-07-30T12:31:31;98246.43;;;24.40;42.42
75549;BME280;64133;56.002;37.208;2023-07-30T12:36:35;98256.36;;;23.09;44.79
75549;BME280;64133;56.002;37.208;2023-07-30T12:41:40;98265.20;;;23.68;43.52
75549;BME280;64133;56.002;37.208;2023-07-30T12:46:45;98261.30;;;23.73;43.66
75549;BME280;64133;56.002;37.208;2023-07-30T12:51:50;98256.71;;;23.01;44.91
75549;BME280;64133;56.002;37.208;2023-07-30T12:56:54;98266.57;;;22.44;45.33
75549;BME280;64133;56.002;37.208;2023-07-30T13:01:59;98262.99;;;22.02;45.56
75549;BME280;64133;56.002;37.208;2023-07-30T13:07:04;98255.24;;;23.43;43.09
75549;BME280;64133;56.002;37.208;2023-07-30T13:12:10;98253.16;;;24.25;42.00
75549;BME280;64133;56.002;37.208;2023-07-30T13:17:14;98250.53;;;24.76;41.41
75549;BME280;64133;56.002;37.208;2023-07-30T13:22:19;98251.95;;;24.98;41.05
75549;BME280;64133;56.002;37.208;2023-07-30T13:27:24;98247.66;;;24.49;41.72
75549;BME280;64133;56.002;37.208;2023-07-30T13:32:28;98248.73;;;24.05;42.02
75549;BME280;64133;56.002;37.208;2023-07-30T13:37:33;98255.87;;;24.42;40.82
75549;BME280;64133;56.002;37.208;2023-07-30T13:42:38;98251.57;;;24.13;40.84
75549;BME280;64133;56.002;37.208;2023-07-30T13:47:43;98236.05;;;24.63;40.00
75549;BME280;64133;56.002;37.208;2023-07-30T13:52:47;98243.92;;;24.67;40.05
75549;BME280;64133;56.002;37.208;2023-07-30T13:57:54;98237.39;;;25.32;39.56
75549;BME280;64133;56.002;37.208;2023-07-30T14:02:57;98240.08;;;25.30;39.68
75549;BME280;64133;56.002;37.208;2023-07-30T14:08:01;98225.33;;;25.01;40.03
75549;BME280;64133;56.002;37.208;2023-07-30T14:13:06;98225.05;;;25.00;39.77
75549;BME280;64133;56.002;37.208;2023-07-30T14:18:11;98219.59;;;25.31;38.78
75549;BME280;64133;56.002;37.208;2023-07-30T14:23:15;98225.08;;;25.20;37.95
75549;BME280;64133;56.002;37.208;2023-07-30T14:28:20;98225.69;;;25.24;37.32
75549;BME280;64133;56.002;37.208;2023-07-30T14:33:25;98227.42;;;24.97;36.61
75549;BME280;64133;56.002;37.208;2023-07-30T14:38:30;98212.22;;;25.46;36.66
75549;BME280;64133;56.002;37.208;2023-07-30T14:43:38;98205.78;;;25.69;36.56
75549;BME280;64133;56.002;37.208;2023-07-30T14:48:43;98219.16;;;25.40;36.96
75549;BME280;64133;56.002;37.208;2023-07-30T14:53:48;98212.35;;;26.27;36.10
75549;BME280;64133;56.002;37.208;2023-07-30T14:58:53;98214.91;;;26.42;36.56
75549;BME280;64133;56.002;37.208;2023-07-30T15:03:57;98220.95;;;26.24;36.64
75549;BME280;64133;56.002;37.208;2023-07-30T15:09:03;98225.08;;;26.59;36.67
75549;BME280;64133;56.002;37.208;2023-07-30T15:14:08;98216.66;;;26.88;36.53
75549;BME280;64133;56.002;37.208;2023-07-30T15:19:13;98220.02;;;27.07;36.70
75549;BME280;64133;56.002;37.208;2023-07-30T15:24:17;98222.63;;;27.27;36.63
75549;BME280;64133;56.002;37.208;2023-07-30T15:29:25;98229.16;;;26.96;36.75
75549;BME280;64133;56.002;37.208;2023-07-30T15:34:29;98240.13;;;28.55;35.13
75549;BME280;64133;56.002;37.208;2023-07-30T15:39:34;98243.67;;;28.73;34.88
75549;BME280;64133;56.002;37.208;2023-07-30T15:44:39;98250.17;;;28.70;34.49
75549;BME280;64133;56.002;37.208;2023-07-30T15:49:44;98238.95;;;29.58;32.89
75549;BME280;64133;56.002;37.208;2023-07-30T15:54:49;98238.56;;;29.85;31.64
75549;BME280;64133;56.002;37.208;2023-07-30T15:59:53;98250.78;;;31.40;29.27
75549;BME280;64133;56.002;37.208;2023-07-30T16:04:58;98256.16;;;33.03;26.76
75549;BME280;64133;56.002;37.208;2023-07-30T16:10:06;98248.02;;;33.75;25.90
75549;BME280;64133;56.002;37.208;2023-07-30T16:15:11;98252.41;;;34.62;24.78
75549;BME280;64133;56.002;37.208;2023-07-30T16:20:17;98261.15;;;34.25;24.89
75549;BME280;64133;56.002;37.208;2023-07-30T16:25:22;98272.16;;;33.95;24.74
75549;BME280;64133;56.002;37.208;2023-07-30T16:30:27;98256.83;;;33.44;25.08
75549;BME280;64133;56.002;37.208;2023-07-30T16:35:32;98262.56;;;31.33;26.69
75549;BME280;64133;56.002;37.208;2023-07-30T16:40:37;98256.76;;;25.10;34.67
75549;BME280;64133;56.002;37.208;2023-07-30T16:45:42;98258.59;;;23.99;36.35
75549;BME280;64133;56.002;37.208;2023-07-30T16:50:46;98262.32;;;23.35;37.57
75549;BME280;64133;56.002;37.208;2023-07-30T16:55:51;98267.05;;;22.95;38.15
75549;BME280;64133;56.002;37.208;2023-07-30T17:01:03;98266.23;;;22.73;38.69
75549;BME280;64133;56.002;37.208;2023-07-30T17:06:08;98270.96;;;22.48;39.22
75549;BME280;64133;56.002;37.208;2023-07-30T17:11:12;98278.41;;;22.16;39.91
75549;BME280;64133;56.002;37.208;2023-07-30T17:16:18;98278.05;;;21.94;40.35
75549;BME280;64133;56.002;37.208;2023-07-30T17:21:22;98274.50;;;21.63;41.06
75549;BME280;64133;56.002;37.208;2023-07-30T17:26:27;98276.22;;;21.57;41.43
75549;BME280;64133;56.002;37.208;2023-07-30T17:31:32;98287.33;;;21.27;42.11
75549;BME280;64133;56.002;37.208;2023-07-30T17:36:36;98293.04;;;21.12;42.68
75549;BME280;64133;56.002;37.208;2023-07-30T17:41:41;98295.88;;;20.92;43.24
75549;BME280;64133;56.002;37.208;2023-07-30T17:46:46;98297.75;;;20.76;43.86
75549;BME280;64133;56.002;37.208;2023-07-30T17:51:52;98304.84;;;20.41;44.82
75549;BME280;64133;56.002;37.208;2023-07-30T17:56:57;98303.40;;;20.07;46.02
75549;BME280;64133;56.002;37.208;2023-07-30T18:02:02;98312.66;;;19.98;46.60
75549;BME280;64133;56.002;37.208;2023-07-30T18:07:06;98313.11;;;19.95;46.88
75549;BME280;64133;56.002;37.208;2023-07-30T18:12:11;98306.95;;;19.88;47.43
75549;BME280;64133;56.002;37.208;2023-07-30T18:17:16;98317.11;;;19.52;48.71
75549;BME280;64133;56.002;37.208;2023-07-30T18:22:21;98316.83;;;19.38;49.24
75549;BME280;64133;56.002;37.208;2023-07-30T18:27:26;98314.97;;;19.32;49.95
75549;BME280;64133;56.002;37.208;2023-07-30T18:32:31;98311.61;;;19.01;50.78
75549;BME280;64133;56.002;37.208;2023-07-30T18:37:35;98313.78;;;19.08;50.81
75549;BME280;64133;56.002;37.208;2023-07-30T18:42:40;98311.41;;;19.09;50.96
75549;BME280;64133;56.002;37.208;2023-07-30T18:47:45;98314.69;;;18.78;51.93
75549;BME280;64133;56.002;37.208;2023-07-30T18:52:50;98318.53;;;18.55;52.33
75549;BME280;64133;56.002;37.208;2023-07-30T18:57:54;98319.53;;;18.48;52.77
75549;BME280;64133;56.002;37.208;2023-07-30T19:02:59;98316.36;;;18.42;52.86
75549;BME280;64133;56.002;37.208;2023-07-30T19:08:04;98313.53;;;18.26;53.60
75549;BME280;64133;56.002;37.208;2023-07-30T19:13:09;98315.64;;;18.13;54.41
75549;BME280;64133;56.002;37.208;2023-07-30T19:18:13;98309.19;;;17.88;55.08
75549;BME280;64133;56.002;37.208;2023-07-30T19:23:18;98310.98;;;17.80;55.54
75549;BME280;64133;56.002;37.208;2023-07-30T19:28:23;98309.17;;;17.81;55.66
75549;BME280;64133;56.002;37.208;2023-07-30T19:33:28;98299.75;;;17.68;56.07
75549;BME280;64133;56.002;37.208;2023-07-30T19:38:33;98298.02;;;17.53;56.36
75549;BME280;64133;56.002;37.208;2023-07-30T19:43:37;98302.22;;;17.34;57.01
75549;BME280;64133;56.002;37.208;2023-07-30T19:48:42;98296.61;;;17.40;57.04
75549;BME280;64133;56.002;37.208;2023-07-30T19:53:47;98302.73;;;17.34;57.28
75549;BME280;64133;56.002;37.208;2023-07-30T19:58:52;98298.75;;;17.23;57.77
75549;BME280;64133;56.002;37.208;2023-07-30T20:03:56;98305.59;;;17.04;58.43
75549;BME280;64133;56.002;37.208;2023-07-30T20:09:01;98306.92;;;17.04;58.43
75549;BME280;64133;56.002;37.208;2023-07-30T20:14:06;98308.52;;;16.99;58.50
75549;BME280;64133;56.002;37.208;2023-07-30T20:19:11;98313.97;;;16.91;58.59
75549;BME280;64133;56.002;37.208;2023-07-30T20:24:15;98319.22;;;16.84;58.84
75549;BME280;64133;56.002;37.208;2023-07-30T20:29:20;98312.84;;;16.78;59.11
75549;BME280;64133;56.002;37.208;2023-07-30T20:34:25;98306.33;;;16.81;59.11
75549;BME280;64133;56.002;37.208;2023-07-30T20:39:29;98312.91;;;16.74;59.29
75549;BME280;64133;56.002;37.208;2023-07-30T20:44:35;98310.65;;;16.67;59.58
75549;BME280;64133;56.002;37.208;2023-07-30T20:49:40;98308.77;;;16.61;59.97
75549;BME280;64133;56.002;37.208;2023-07-30T20:54:44;98305.78;;;16.49;60.43
75549;BME280;64133;56.002;37.208;2023-07-30T20:59:49;98300.86;;;16.46;60.55
75549;BME280;64133;56.002;37.208;2023-07-30T21:04:54;98299.91;;;16.32;61.07
75549;BME280;64133;56.002;37.208;2023-07-30T21:10:00;98291.08;;;16.32;61.07
75549;BME280;64133;56.002;37.208;2023-07-30T21:15:06;98298.12;;;16.40;60.96
75549;BME280;64133;56.002;37.208;2023-07-30T21:20:11;98293.94;;;16.20;61.43
75549;BME280;64133;56.002;37.208;2023-07-30T21:25:17;98307.05;;;15.96;62.58
75549;BME280;64133;56.002;37.208;2023-07-30T21:30:22;98312.23;;;15.78;63.48
75549;BME280;64133;56.002;37.208;2023-07-30T21:35:27;98297.27;;;15.67;63.92
75549;BME280;64133;56.002;37.208;2023-07-30T21:40:32;98321.27;;;15.73;64.18
75549;BME280;64133;56.002;37.208;2023-07-30T21:45:37;98313.20;;;15.81;64.10
75549;BME280;64133;56.002;37.208;2023-07-30T21:50:41;98325.13;;;15.96;63.82
75549;BME280;64133;56.002;37.208;2023-07-30T21:55:46;98328.27;;;15.85;63.97
75549;BME280;64133;56.002;37.208;2023-07-30T22:00:53;98326.29;;;15.83;64.12
75549;BME280;64133;56.002;37.208;2023-07-30T22:05:57;98324.00;;;15.80;64.25
75549;BME280;64133;56.002;37.208;2023-07-30T22:11:02;98321.53;;;15.78;64.32
75549;BME280;64133;56.002;37.208;2023-07-30T22:16:07;98321.89;;;15.75;64.43
75549;BME280;64133;56.002;37.208;2023-07-30T22:21:12;98315.81;;;15.71;64.67
75549;BME280;64133;56.002;37.208;2023-07-30T22:26:16;98322.28;;;15.72;64.65
75549;BME280;64133;56.002;37.208;2023-07-30T22:31:24;98316.22;;;15.64;64.88
75549;BME280;64133;56.002;37.208;2023-07-30T22:36:29;98311.45;;;15.59;65.25
75549;BME280;64133;56.002;37.208;2023-07-30T22:41:33;98313.65;;;15.55;65.43
75549;BME280;64133;56.002;37.208;2023-07-30T22:46:38;98307.25;;;15.50;65.71
75549;BME280;64133;56.002;37.208;2023-07-30T22:51:43;98311.48;;;15.40;66.02
75549;BME280;64133;56.002;37.208;2023-07-30T22:56:48;98315.42;;;15.44;66.01
75549;BME280;64133;56.002;37.208;2023-07-30T23:01:52;98321.16;;;15.37;66.18
75549;BME280;64133;56.002;37.208;2023-07-30T23:06:57;98330.75;;;15.19;66.63
75549;BME280;64133;56.002;37.208;2023-07-30T23:12:02;98324.86;;;15.13;66.94
75549;BME280;64133;56.002;37.208;2023-07-30T23:17:07;98329.66;;;15.14;67.09
75549;BME280;64133;56.002;37.208;2023-07-30T23:22:11;98322.75;;;15.08;67.22
75549;BME280;64133;56.002;37.208;2023-07-30T23:27:16;98327.77;;;15.03;67.43
75549;BME280;64133;56.002;37.208;2023-07-30T23:32:21;98324.33;;;14.99;67.62
75549;BME280;64133;56.002;37.208;2023-07-30T23:37:26;98324.87;;;14.94;67.79
75549;BME280;64133;56.002;37.208;2023-07-30T23:42:31;98335.05;;;14.87;67.99
75549;BME280;64133;56.002;37.208;2023-07-30T23:47:35;98333.46;;;14.77;68.37
75549;BME280;64133;56.002;37.208;2023-07-30T23:52:40;98341.95;;;14.73;68.70
75549;BME280;64133;56.002;37.208;2023-07-30T23:57:44;98332.64;;;14.77;68.73
